Time;durP1;ratioP1;P1;durP2;ratioP2;P2;SDS_P1;SDS_P2;PMS_P1;PMS_P2;Temp;Humidity;BMP_temperature;BMP_pressure;BME280_temperature;BME280_humidity;BME280_pressure;Samples;Min_cycle;Max_cycle;Signal;HPM_P1;HPM_P2
2022/05/27 00:00:19;;;;;;;34.08;6.13;;;11.50;99.90;;;;;;5053121;28;20190;-67
2022/05/27 00:02:47;;;;;;;43.85;6.25;;;11.40;99.90;;;;;;5054166;28;20384;-67
2022/05/27 00:05:14;;;;;;;36.35;5.93;;;11.30;99.90;;;;;;5056781;28;20492;-67
2022/05/27 00:07:39;;;;;;;44.55;6.30;;;11.30;99.90;;;;;;5056966;28;20040;-67
2022/05/27 00:10:06;;;;;;;26.77;5.50;;;11.20;99.90;;;;;;5056642;28;20025;-67
2022/05/27 00:12:31;;;;;;;44.08;7.10;;;11.10;99.90;;;;;;5056907;28;20033;-67
2022/05/27 00:14:57;;;;;;;38.25;5.43;;;11.10;99.90;;;;;;5056569;28;20024;-67
2022/05/27 00:17:22;;;;;;;36.13;5.63;;;11.00;99.90;;;;;;5056539;28;20025;-67
2022/05/27 00:19:48;;;;;;;29.42;5.55;;;11.00;99.90;;;;;;5056415;28;20366;-67
2022/05/27 00:22:14;;;;;;;32.08;6.88;;;10.90;99.90;;;;;;5056665;28;20021;-67
2022/05/27 00:24:39;;;;;;;43.90;7.15;;;10.80;99.90;;;;;;5056665;28;20028;-67
2022/05/27 00:27:08;;;;;;;36.08;5.05;;;10.90;99.90;;;;;;5056327;28;20032;-67
2022/05/27 00:29:35;;;;;;;29.50;5.50;;;10.90;99.90;;;;;;5056599;28;20108;-67
2022/05/27 00:32:01;;;;;;;34.05;6.22;;;10.90;99.90;;;;;;5056521;28;20041;-67
2022/05/27 00:34:26;;;;;;;40.35;7.20;;;10.90;99.90;;;;;;5056203;28;20024;-67
2022/05/27 00:36:52;;;;;;;28.85;5.32;;;10.90;99.90;;;;;;5056152;28;20072;-67
2022/05/27 00:39:18;;;;;;;29.67;5.93;;;10.80;99.90;;;;;;5056405;28;20043;-67
2022/05/27 00:41:43;;;;;;;32.95;5.82;;;10.80;99.90;;;;;;5055894;28;20543;-67
2022/05/27 00:44:09;;;;;;;30.88;6.22;;;10.80;99.90;;;;;;5056065;28;20028;-67
2022/05/27 00:46:35;;;;;;;41.13;6.32;;;10.80;99.90;;;;;;5056257;28;20036;-68
2022/05/27 00:49:16;;;;;;;42.05;5.70;;;10.80;99.90;;;;;;5055934;28;20043;-68
2022/05/27 00:51:50;;;;;;;35.72;5.57;;;10.80;99.90;;;;;;5055838;28;20029;-68
2022/05/27 00:54:23;;;;;;;35.35;6.22;;;10.80;99.90;;;;;;5055849;28;20025;-68
2022/05/27 00:56:56;;;;;;;34.28;5.47;;;10.80;99.90;;;;;;5056128;28;20025;-67
2022/05/27 00:59:38;;;;;;;24.92;4.05;;;10.70;99.90;;;;;;5056269;28;20036;-67
2022/05/27 01:02:04;;;;;;;39.53;5.38;;;10.60;99.90;;;;;;5055599;28;20473;-67
2022/05/27 01:04:31;;;;;;;29.77;5.25;;;10.50;99.90;;;;;;5055715;28;20035;-67
2022/05/27 01:06:57;;;;;;;36.63;4.45;;;10.50;99.90;;;;;;5055788;28;20376;-67
2022/05/27 01:09:23;;;;;;;32.60;5.38;;;10.50;99.90;;;;;;5055549;28;20020;-67
2022/05/27 01:12:17;;;;;;;36.42;5.32;;;10.50;99.90;;;;;;5055273;28;20060;-67
2022/05/27 01:15:05;;;;;;;29.57;4.43;;;10.40;99.90;;;;;;5055167;28;20040;-67
2022/05/27 01:17:53;;;;;;;29.92;4.63;;;10.40;99.90;;;;;;5055465;28;20040;-67
2022/05/27 01:20:38;;;;;;;25.15;4.97;;;10.30;99.90;;;;;;5055348;28;20029;-67
2022/05/27 01:23:35;;;;;;;30.50;5.72;;;10.30;99.90;;;;;;5055541;28;20100;-68
2022/05/27 01:26:19;;;;;;;25.42;3.80;;;10.30;99.90;;;;;;5055641;28;20107;-67
2022/05/27 01:28:57;;;;;;;41.22;4.47;;;10.30;99.90;;;;;;5055187;28;20545;-67
2022/05/27 01:31:50;;;;;;;31.10;5.57;;;10.30;99.90;;;;;;5055441;28;20068;-67
2022/05/27 01:34:22;;;;;;;34.75;4.70;;;10.30;99.90;;;;;;5055235;28;20551;-67
2022/05/27 01:37:09;;;;;;;22.83;3.97;;;10.30;99.90;;;;;;5055378;28;20082;-67
2022/05/27 01:39:55;;;;;;;41.92;5.70;;;10.20;99.90;;;;;;5055360;28;20036;-67
2022/05/27 01:42:42;;;;;;;32.15;4.32;;;10.20;99.90;;;;;;5055194;28;20401;-67
2022/05/27 01:45:27;;;;;;;52.55;5.78;;;10.10;99.90;;;;;;5055162;28;20021;-67
2022/05/27 01:48:01;;;;;;;49.15;7.30;;;10.00;99.90;;;;;;5055170;28;20120;-67
2022/05/27 01:51:01;;;;;;;31.58;4.40;;;10.10;99.90;;;;;;5054920;28;20025;-67
2022/05/27 01:53:38;;;;;;;36.17;5.32;;;10.00;99.90;;;;;;5043541;28;20048;-67
2022/05/27 01:56:18;;;;;;;44.92;5.10;;;10.00;99.90;;;;;;5055302;28;20469;-67
2022/05/27 01:59:29;;;;;;;29.83;4.32;;;9.90;99.90;;;;;;5054794;28;20029;-68
2022/05/27 02:02:00;;;;;;;37.33;6.13;;;9.90;99.90;;;;;;5049146;28;20456;-67
2022/05/27 02:04:32;;;;;;;35.00;6.60;;;9.80;99.90;;;;;;5054780;28;20424;-67
2022/05/27 02:07:03;;;;;;;33.58;5.00;;;9.80;99.90;;;;;;5054790;28;20029;-67
2022/05/27 02:09:34;;;;;;;50.75;5.80;;;9.80;99.90;;;;;;5054410;28;20040;-67
2022/05/27 02:12:10;;;;;;;39.35;4.90;;;9.70;99.90;;;;;;5054457;28;20029;-67
2022/05/27 02:14:49;;;;;;;32.15;4.00;;;9.70;99.90;;;;;;5054416;28;20025;-67
2022/05/27 02:17:20;;;;;;;41.67;5.22;;;9.70;99.90;;;;;;5054209;28;20029;-67
2022/05/27 02:19:56;;;;;;;33.40;4.57;;;9.70;99.90;;;;;;5054272;28;20473;-67
2022/05/27 02:22:32;;;;;;;35.42;4.38;;;9.70;99.90;;;;;;5054031;28;20029;-67
2022/05/27 02:25:04;;;;;;;38.58;5.53;;;9.70;99.90;;;;;;5053886;28;20109;-67
2022/05/27 02:27:33;;;;;;;29.65;4.78;;;9.70;99.90;;;;;;5053972;28;20025;-67
2022/05/27 02:30:07;;;;;;;42.67;5.28;;;9.70;99.90;;;;;;5054162;28;20139;-67
2022/05/27 02:32:45;;;;;;;44.45;6.18;;;9.60;99.90;;;;;;5053848;28;20114;-67
2022/05/27 02:35:25;;;;;;;26.25;4.47;;;9.60;99.90;;;;;;5054199;28;20369;-68
2022/05/27 02:37:53;;;;;;;36.92;5.60;;;9.60;99.90;;;;;;5054192;28;20025;-68
2022/05/27 02:40:33;;;;;;;31.52;5.63;;;9.60;99.90;;;;;;5053757;28;20064;-68
2022/05/27 02:43:10;;;;;;;34.83;5.88;;;9.60;99.90;;;;;;5053808;28;20029;-68
2022/05/27 02:45:54;;;;;;;42.88;5.43;;;9.60;99.90;;;;;;5053655;28;20043;-68
2022/05/27 02:48:42;;;;;;;38.60;4.88;;;9.60;99.90;;;;;;5053907;28;20499;-68
2022/05/27 02:51:26;;;;;;;41.38;5.82;;;9.60;99.90;;;;;;5053897;28;20119;-68
2022/05/27 02:54:01;;;;;;;25.17;4.97;;;9.60;99.90;;;;;;5053980;28;20523;-68
2022/05/27 02:56:48;;;;;;;35.28;5.68;;;9.60;99.90;;;;;;5053902;28;20021;-68
2022/05/27 02:59:17;;;;;;;37.47;6.00;;;9.60;99.90;;;;;;5053832;28;20025;-68
2022/05/27 03:01:46;;;;;;;35.70;7.35;;;9.70;99.90;;;;;;5053327;28;20104;-68
2022/05/27 03:04:12;;;;;;;35.03;5.18;;;9.70;99.90;;;;;;5054024;28;20100;-68
2022/05/27 03:07:00;;;;;;;53.42;5.72;;;9.70;99.90;;;;;;5053546;28;20425;-68
2022/05/27 03:09:34;;;;;;;32.92;5.25;;;9.60;99.90;;;;;;5053714;28;20107;-68
2022/05/27 03:12:13;;;;;;;29.90;5.25;;;9.60;99.90;;;;;;5053441;28;20513;-68
2022/05/27 03:14:45;;;;;;;39.17;7.22;;;9.60;99.90;;;;;;5053471;28;20111;-68
2022/05/27 03:17:19;;;;;;;30.05;4.53;;;9.50;99.90;;;;;;5053536;28;20539;-68
2022/05/27 03:20:10;;;;;;;37.55;7.05;;;9.50;99.90;;;;;;5053553;28;20029;-68
2022/05/27 03:23:05;;;;;;;29.27;4.47;;;9.50;99.90;;;;;;5053283;28;20028;-67
2022/05/27 03:25:57;;;;;;;35.03;5.47;;;9.50;99.90;;;;;;5050676;28;20083;-67
2022/05/27 03:28:36;;;;;;;34.00;6.15;;;9.50;99.90;;;;;;5053273;28;20508;-67
2022/05/27 03:31:25;;;;;;;46.10;6.18;;;9.50;99.90;;;;;;5053148;28;20024;-67
2022/05/27 03:33:51;;;;;;;42.05;6.32;;;9.50;99.90;;;;;;5053496;28;20028;-67
2022/05/27 03:36:26;;;;;;;43.10;6.35;;;9.50;99.90;;;;;;5053758;28;20027;-67
2022/05/27 03:38:59;;;;;;;56.25;5.03;;;9.60;99.90;;;;;;5057630;28;20025;-67
2022/05/27 03:41:34;;;;;;;33.15;5.68;;;9.70;99.90;;;;;;5057757;28;20029;-67
2022/05/27 03:44:00;;;;;;;42.78;5.55;;;9.80;99.90;;;;;;5058132;28;20402;-67
2022/05/27 03:46:35;;;;;;;45.50;7.75;;;9.80;99.90;;;;;;5057135;28;20060;-67
2022/05/27 03:49:02;;;;;;;37.00;5.88;;;9.90;99.90;;;;;;5057391;28;20108;-67
2022/05/27 03:51:46;;;;;;;43.10;7.65;;;9.90;99.90;;;;;;5056965;28;20049;-67
2022/05/27 03:54:11;;;;;;;;;;;10.00;99.90;;;;;;5057747;28;20385;-67
2022/05/27 03:56:42;;;;;;;49.40;7.35;;;9.90;99.90;;;;;;5057219;28;19912;-67
2022/05/27 03:59:12;;;;;;;39.40;6.22;;;10.00;99.90;;;;;;5056900;28;20029;-67
2022/05/27 04:01:41;;;;;;;30.45;5.50;;;10.10;99.90;;;;;;5056985;28;20074;-67
2022/05/27 04:04:10;;;;;;;35.67;5.57;;;10.10;99.90;;;;;;5057028;28;20051;-67
2022/05/27 04:06:35;;;;;;;43.97;6.45;;;10.10;99.90;;;;;;5056679;28;20029;-67
2022/05/27 04:09:01;;;;;;;42.08;6.85;;;10.10;99.90;;;;;;5057270;28;20025;-67
2022/05/27 04:11:27;;;;;;;44.85;6.70;;;10.10;99.90;;;;;;5056682;28;20029;-67
2022/05/27 04:13:53;;;;;;;46.83;5.93;;;10.10;99.90;;;;;;5056652;28;20029;-67
2022/05/27 04:16:19;;;;;;;37.30;6.30;;;10.10;99.90;;;;;;5056609;28;20039;-67
2022/05/27 04:18:45;;;;;;;45.08;5.28;;;10.20;99.90;;;;;;5056513;28;20068;-67
2022/05/27 04:21:11;;;;;;;42.78;6.28;;;10.20;99.90;;;;;;5056330;28;20081;-67
2022/05/27 04:23:37;;;;;;;54.88;7.20;;;10.20;99.90;;;;;;5056441;28;20021;-67
2022/05/27 04:26:04;;;;;;;47.47;6.55;;;10.20;99.90;;;;;;5056700;28;20052;-67
2022/05/27 04:28:29;;;;;;;38.15;7.30;;;10.20;99.90;;;;;;5056355;28;20101;-67
2022/05/27 04:30:55;;;;;;;39.00;6.07;;;10.30;99.90;;;;;;5056345;28;20056;-66
2022/05/27 04:33:21;;;;;;;41.30;5.97;;;10.30;99.90;;;;;;5056276;28;20051;-67
2022/05/27 04:35:46;;;;;;;36.85;5.82;;;10.40;99.90;;;;;;5056291;28;20359;-67
2022/05/27 04:38:12;;;;;;;46.03;9.73;;;10.40;99.90;;;;;;5056711;28;20354;-67
2022/05/27 04:40:38;;;;;;;35.20;4.80;;;10.40;99.90;;;;;;5056072;28;20029;-67
2022/05/27 04:43:05;;;;;;;40.17;6.03;;;10.50;99.90;;;;;;5056041;28;20021;-66
2022/05/27 04:45:30;;;;;;;25.27;4.97;;;10.60;99.90;;;;;;5055964;28;20021;-67
2022/05/27 04:47:56;;;;;;;38.20;6.47;;;10.60;99.90;;;;;;5055712;28;20032;-67
2022/05/27 04:50:22;;;;;;;39.92;5.90;;;10.60;99.90;;;;;;5055715;28;20033;-67
2022/05/27 04:52:48;;;;;;;38.17;6.03;;;10.70;99.90;;;;;;5056029;28;20032;-66
2022/05/27 04:55:16;;;;;;;41.30;5.03;;;10.70;99.90;;;;;;5055776;28;20489;-66
2022/05/27 04:57:51;;;;;;;43.08;5.40;;;10.80;99.90;;;;;;5055850;28;20410;-67
2022/05/27 05:00:38;;;;;;;40.75;6.53;;;10.80;99.90;;;;;;5056200;28;20027;-67
2022/05/27 05:03:04;;;;;;;36.35;7.30;;;10.90;99.90;;;;;;5055523;28;20145;-67
2022/05/27 05:05:32;;;;;;;46.78;6.70;;;11.00;99.90;;;;;;5055687;28;20053;-67
2022/05/27 05:08:04;;;;;;;37.63;6.03;;;11.10;99.90;;;;;;5055530;28;20480;-67
2022/05/27 05:10:30;;;;;;;38.97;5.80;;;11.10;99.90;;;;;;5055814;28;20029;-67
2022/05/27 05:12:56;;;;;;;54.78;7.05;;;11.20;99.90;;;;;;5055373;28;20109;-67
2022/05/27 05:15:23;;;;;;;58.25;6.55;;;11.20;99.90;;;;;;5055426;28;20034;-67
2022/05/27 05:17:48;;;;;;;37.05;6.60;;;11.30;99.90;;;;;;5055363;28;20033;-66
2022/05/27 05:20:16;;;;;;;48.25;7.20;;;11.30;99.90;;;;;;5055589;28;20036;-67
2022/05/27 05:22:41;;;;;;;29.38;6.13;;;11.40;99.90;;;;;;5055317;28;20017;-66
2022/05/27 05:25:09;;;;;;;38.03;6.13;;;11.30;99.90;;;;;;5055603;28;20025;-66
2022/05/27 05:27:36;;;;;;;38.25;5.60;;;11.30;99.90;;;;;;5055539;28;20032;-67
2022/05/27 05:30:02;;;;;;;38.33;5.82;;;11.40;99.90;;;;;;5055456;28;20029;-66
2022/05/27 05:32:28;;;;;;;49.70;6.88;;;11.40;99.90;;;;;;5055105;28;20037;-66
2022/05/27 05:34:54;;;;;;;44.45;6.50;;;11.50;99.90;;;;;;5055693;28;20025;-67
2022/05/27 05:37:20;;;;;;;58.10;7.05;;;11.60;99.90;;;;;;5055389;28;20029;-67
2022/05/27 05:39:46;;;;;;;39.78;7.05;;;11.70;99.90;;;;;;5055011;28;20354;-67
2022/05/27 05:42:11;;;;;;;34.95;7.00;;;11.70;99.90;;;;;;5055081;28;20029;-67
2022/05/27 05:44:38;;;;;;;32.92;5.70;;;11.80;99.90;;;;;;5055017;28;20499;-66
2022/05/27 05:47:04;;;;;;;39.25;5.80;;;11.80;99.90;;;;;;5055197;28;20100;-67
2022/05/27 05:49:29;;;;;;;42.63;6.53;;;11.70;99.90;;;;;;5055082;28;20021;-67
2022/05/27 05:51:58;;;;;;;48.63;7.72;;;11.60;99.90;;;;;;5054975;28;20489;-67
2022/05/27 05:54:25;;;;;;;32.88;6.40;;;11.70;99.90;;;;;;5054770;28;20029;-67
2022/05/27 05:56:51;;;;;;;31.45;5.10;;;11.80;99.90;;;;;;5054723;28;20116;-67
2022/05/27 05:59:19;;;;;;;37.20;6.75;;;11.90;99.90;;;;;;5054679;28;20067;-67
2022/05/27 06:01:45;;;;;;;35.47;6.28;;;12.00;99.90;;;;;;5053858;28;20033;-67
2022/05/27 06:04:11;;;;;;;30.77;5.90;;;12.10;99.90;;;;;;5054789;28;20071;-68
2022/05/27 06:06:38;;;;;;;38.03;5.70;;;12.30;99.90;;;;;;5054486;28;20036;-67
2022/05/27 06:09:05;;;;;;;38.75;5.70;;;12.30;99.90;;;;;;5054481;28;20032;-67
2022/05/27 06:11:30;;;;;;;45.78;11.57;;;12.30;99.90;;;;;;5054478;28;20115;-67
2022/05/27 06:13:56;;;;;;;54.47;14.40;;;12.20;99.90;;;;;;5125697;22;20506;-69
2022/05/27 06:16:22;;;;;;;133.65;40.28;;;12.20;99.90;;;;;;5054571;28;20500;-68
2022/05/27 06:18:48;;;;;;;42.17;12.50;;;12.30;99.90;;;;;;5054602;28;20464;-68
2022/05/27 06:21:14;;;;;;;71.55;23.13;;;12.50;99.90;;;;;;5054421;28;20389;-68
2022/05/27 06:23:39;;;;;;;45.40;13.40;;;12.80;99.90;;;;;;5054342;28;20017;-69
2022/05/27 06:26:07;;;;;;;36.67;10.88;;;12.90;99.90;;;;;;5054283;28;20021;-68
2022/05/27 06:36:47;;;;;;;40.83;10.55;;;12.40;99.90;;;;;;5054116;28;20040;-69
2022/05/27 06:39:13;;;;;;;30.88;6.43;;;12.50;99.90;;;;;;5054075;28;20507;-69
2022/05/27 06:41:39;;;;;;;35.97;6.47;;;12.30;99.90;;;;;;5054287;28;20033;-69
2022/05/27 06:44:06;;;;;;;29.85;4.88;;;12.60;99.90;;;;;;5054124;28;20457;-69
2022/05/27 06:46:33;;;;;;;33.05;5.47;;;13.00;99.90;;;;;;5053811;28;20033;-69
2022/05/27 06:48:59;;;;;;;49.72;6.60;;;13.50;99.90;;;;;;5036459;28;20017;-69
2022/05/27 06:51:25;;;;;;;24.33;4.07;;;12.10;99.90;;;;;;5035921;28;20035;-69
2022/05/27 06:53:51;;;;;;;27.08;4.90;;;10.40;99.90;;;;;;5053711;28;20103;-69
2022/05/27 06:56:17;;;;;;;16.40;3.35;;;9.70;99.90;;;;;;5054032;28;20056;-69
2022/05/27 06:58:43;;;;;;;18.48;3.33;;;9.40;99.90;;;;;;5053982;28;20056;-69
2022/05/27 07:01:10;;;;;;;32.83;4.80;;;9.20;99.90;;;;;;5036108;28;20104;-69
2022/05/27 07:03:39;;;;;;;27.23;4.18;;;9.10;99.90;;;;;;5053611;28;20036;-69
2022/05/27 07:06:08;;;;;;;25.30;4.00;;;9.00;99.90;;;;;;5053888;28;20483;-69
2022/05/27 07:08:34;;;;;;;25.50;4.70;;;9.00;99.90;;;;;;5053884;28;20021;-69
2022/05/27 07:10:59;;;;;;;30.13;4.07;;;9.40;99.90;;;;;;5053882;28;20052;-70
2022/05/27 07:13:25;;;;;;;36.35;4.93;;;9.80;99.90;;;;;;5053376;28;20511;-70
2022/05/27 07:15:51;;;;;;;32.70;5.70;;;10.30;99.90;;;;;;5053667;28;20021;-70
2022/05/27 07:18:16;;;;;;;33.45;4.78;;;10.60;99.90;;;;;;5053641;28;20439;-70
2022/05/27 07:20:43;;;;;;;52.58;6.20;;;10.90;99.90;;;;;;5053816;28;20029;-70
2022/05/27 07:23:10;;;;;;;43.38;6.85;;;11.20;99.90;;;;;;5053653;28;20132;-70
2022/05/27 07:25:35;;;;;;;37.80;6.68;;;11.30;99.90;;;;;;5053401;28;20040;-70
2022/05/27 07:28:06;;;;;;;38.40;7.25;;;11.40;99.90;;;;;;5053711;28;20540;-70
2022/05/27 07:30:35;;;;;;;30.00;5.18;;;11.60;99.90;;;;;;5053687;28;20107;-70
2022/05/27 07:33:01;;;;;;;39.05;5.40;;;11.70;99.90;;;;;;5053304;28;20500;-70
2022/05/27 07:35:27;;;;;;;37.00;6.47;;;11.90;99.90;;;;;;5035478;28;20037;-70
2022/05/27 07:37:52;;;;;;;29.98;5.28;;;12.20;99.90;;;;;;5053395;28;20032;-70
2022/05/27 07:40:18;;;;;;;38.85;7.10;;;12.40;99.90;;;;;;5053362;28;20521;-70
2022/05/27 07:42:44;;;;;;;36.08;5.38;;;12.40;99.90;;;;;;5053189;28;20048;-70
2022/05/27 07:45:16;;;;;;;23.23;5.28;;;12.40;99.90;;;;;;5053371;28;20082;-70
2022/05/27 07:47:42;;;;;;;27.23;3.95;;;12.20;99.90;;;;;;5053640;28;20484;-69
2022/05/27 07:50:11;;;;;;;23.35;4.10;;;12.10;99.90;;;;;;5053225;28;20129;-69
2022/05/27 07:52:37;;;;;;;26.10;2.90;;;11.70;99.90;;;;;;5035377;28;20025;-69
2022/05/27 07:55:04;;;;;;;27.23;3.75;;;11.40;99.90;;;;;;5053156;28;20017;-69
2022/05/27 07:57:30;;;;;;;23.10;3.13;;;11.30;99.90;;;;;;5053220;28;20454;-69
2022/05/27 07:59:55;;;;;;;20.42;2.42;;;11.30;99.90;;;;;;5053435;28;20025;-69
2022/05/27 08:02:22;;;;;;;21.75;2.70;;;11.50;99.90;;;;;;5034645;28;20508;-69
2022/05/27 08:04:48;;;;;;;16.65;2.20;;;11.60;99.90;;;;;;5053286;28;20029;-69
2022/05/27 08:07:14;;;;;;;24.02;3.40;;;11.70;99.90;;;;;;5053362;28;20033;-69
2022/05/27 08:09:40;;;;;;;21.60;7.38;;;12.00;99.90;;;;;;5053154;28;20064;-69
2022/05/27 08:12:06;;;;;;;27.48;9.88;;;12.30;99.90;;;;;;5053068;28;20083;-69
2022/05/27 08:14:32;;;;;;;17.20;4.07;;;12.40;99.90;;;;;;5052985;28;20481;-69
2022/05/27 08:16:59;;;;;;;31.80;4.47;;;12.60;99.90;;;;;;5052944;28;20103;-69
2022/05/27 08:19:24;;;;;;;20.13;4.45;;;12.80;99.90;;;;;;5052922;28;20037;-69
2022/05/27 08:21:50;;;;;;;23.58;3.90;;;12.80;99.90;;;;;;5052846;28;20522;-69
2022/05/27 08:24:16;;;;;;;41.00;4.75;;;12.80;99.90;;;;;;5054826;28;20067;-69
2022/05/27 08:26:42;;;;;;;22.90;5.22;;;13.00;99.90;;;;;;5056867;28;20053;-69
2022/05/27 08:29:08;;;;;;;31.15;4.55;;;13.20;99.90;;;;;;5056648;28;20052;-69
2022/05/27 08:31:34;;;;;;;37.47;4.93;;;13.40;99.90;;;;;;5056569;28;20033;-69
2022/05/27 08:39:30;;;;;;;40.25;6.00;;;13.80;99.90;;;;;;5056529;28;20039;-69
2022/05/27 08:42:28;;;;;;;19.50;4.07;;;13.80;99.90;;;;;;5056712;28;20111;-69
2022/05/27 08:45:10;;;;;;;30.60;3.92;;;13.20;99.90;;;;;;5038465;28;20548;-68
2022/05/27 08:47:52;;;;;;;29.38;5.38;;;12.90;99.90;;;;;;5056612;28;20057;-69
2022/05/27 08:50:42;;;;;;;44.95;13.07;;;13.10;99.90;;;;;;5056369;28;20025;-69
2022/05/27 08:53:29;;;;;;;30.25;7.45;;;13.40;99.90;;;;;;5056567;28;20377;-69
2022/05/27 09:01:51;;;;;;;58.33;11.95;;;13.50;99.90;;;;;;5055850;28;20401;-69
2022/05/27 09:04:32;;;;;;;43.70;9.13;;;13.40;99.90;;;;;;5055916;28;20052;-69
2022/05/27 09:07:24;;;;;;;35.38;5.95;;;13.20;99.90;;;;;;5056183;28;20421;-69
2022/05/27 09:09:50;;;;;;;32.63;6.22;;;13.40;99.90;;;;;;5020418;28;20064;-69
2022/05/27 09:12:32;;;;;;;33.65;4.63;;;13.50;99.90;;;;;;5055783;28;20035;-69
2022/05/27 09:15:03;;;;;;;28.48;5.55;;;13.80;99.90;;;;;;5055723;28;20389;-69
2022/05/27 09:17:42;;;;;;;24.10;4.20;;;13.70;99.90;;;;;;5055986;28;20115;-69
2022/05/27 09:20:37;;;;;;;27.45;6.53;;;13.80;99.90;;;;;;5055862;28;20075;-69
2022/05/27 09:23:25;;;;;;;64.40;13.20;;;13.80;99.90;;;;;;5026308;28;20037;-69
2022/05/27 09:26:09;;;;;;;30.67;7.35;;;14.00;99.90;;;;;;5055819;28;20025;-69
2022/05/27 09:28:57;;;;;;;31.83;7.80;;;13.90;99.90;;;;;;5037598;28;20035;-69
2022/05/27 09:31:37;;;;;;;46.13;6.28;;;14.10;99.90;;;;;;5055761;28;20036;-71
2022/05/27 09:34:03;;;;;;;34.95;7.13;;;14.30;99.90;;;;;;5055248;28;20043;-69
2022/05/27 09:36:38;;;;;;;33.13;5.60;;;14.40;99.90;;;;;;5055471;28;20362;-70
2022/05/27 09:39:10;;;;;;;25.40;4.65;;;14.50;99.90;;;;;;5055483;28;20021;-70
2022/05/27 09:41:36;;;;;;;31.75;5.60;;;14.10;99.90;;;;;;5055222;28;20107;-70
2022/05/27 09:44:09;;;;;;;31.70;6.10;;;13.80;99.90;;;;;;5055517;28;20056;-69
2022/05/27 09:46:35;;;;;;;;;;;14.00;99.90;;;;;;5055992;28;20025;-70
2022/05/27 09:49:01;;;;;;;41.58;5.97;;;14.30;99.90;;;;;;5055361;28;19959;-70
2022/05/27 09:51:30;;;;;;;35.72;6.35;;;14.50;99.90;;;;;;5055244;28;20071;-69
2022/05/27 09:54:26;;;;;;;27.08;4.88;;;14.80;99.90;;;;;;5054979;28;20064;-70
2022/05/27 09:56:59;;;;;;;28.08;5.60;;;14.70;99.90;;;;;;5055035;28;20028;-70
2022/05/27 09:59:33;;;;;;;26.17;5.20;;;14.20;99.90;;;;;;5055196;28;20045;-69
2022/05/27 10:02:19;;;;;;;33.65;5.55;;;14.00;99.90;;;;;;5054712;28;20041;-69
2022/05/27 10:04:51;;;;;;;31.85;7.13;;;13.70;99.90;;;;;;5054732;28;20025;-69
2022/05/27 10:07:33;;;;;;;37.50;6.10;;;12.60;99.90;;;;;;5054849;28;20021;-69
2022/05/27 10:10:21;;;;;;;50.78;13.43;;;11.90;99.90;;;;;;5054651;28;20476;-69
2022/05/27 10:12:47;;;;;;;33.38;7.55;;;11.80;99.90;;;;;;5054621;28;20037;-69
2022/05/27 10:15:38;;;;;;;47.78;12.98;;;12.00;99.90;;;;;;5054742;28;20435;-69
2022/05/27 10:18:23;;;;;;;28.02;6.53;;;12.30;99.90;;;;;;5054552;28;20075;-69
2022/05/27 10:21:04;;;;;;;38.75;6.80;;;13.10;99.90;;;;;;5054870;28;20487;-69
2022/05/27 10:23:34;;;;;;;32.92;8.60;;;13.80;99.90;;;;;;5054396;28;20060;-69
2022/05/27 10:26:19;;;;;;;50.20;10.70;;;14.10;99.90;;;;;;5055167;28;20094;-67
2022/05/27 10:29:00;;;;;;;38.15;6.65;;;14.10;99.90;;;;;;5054512;28;20021;-67
2022/05/27 10:31:27;;;;;;;39.45;8.32;;;14.10;99.90;;;;;;5052263;28;20079;-67
2022/05/27 10:33:53;;;;;;;55.42;14.32;;;13.80;99.90;;;;;;5052628;28;20067;-67
2022/05/27 10:36:40;;;;;;;58.47;14.35;;;13.60;99.90;;;;;;5053819;28;20039;-68
2022/05/27 10:39:29;;;;;;;66.13;21.00;;;13.20;99.90;;;;;;5052602;28;20036;-67
2022/05/27 10:42:22;;;;;;;49.90;15.95;;;12.60;99.90;;;;;;5053814;28;20025;-68
2022/05/27 10:45:13;;;;;;;35.10;7.03;;;11.80;99.90;;;;;;5053903;28;20032;-68
2022/05/27 10:47:44;;;;;;;38.53;6.68;;;11.40;99.90;;;;;;5053114;28;20465;-70
2022/05/27 10:50:17;;;;;;;27.58;10.00;;;11.10;99.90;;;;;;5053290;28;20067;-70
2022/05/27 10:53:20;;;;;;;25.27;3.90;;;11.00;99.90;;;;;;5053307;28;20492;-74
2022/05/27 10:56:26;;;;;;;13.38;3.35;;;10.60;99.90;;;;;;5053476;28;20047;-74
2022/05/27 11:02:05;;;;;;;;;;;10.00;99.90;;;;;;5053543;28;20079;-73
2022/05/27 11:04:53;;;;;;;32.50;5.82;;;10.40;99.90;;;;;;5028843;28;19909;-73
2022/05/27 11:07:40;;;;;;;21.20;3.97;;;10.90;99.90;;;;;;5053407;28;20105;-72
2022/05/27 11:10:22;;;;;;;32.78;5.05;;;11.50;99.90;;;;;;5046700;28;20025;-73
2022/05/27 11:16:23;;;;;;;32.05;4.68;;;12.30;99.90;;;;;;5053134;28;20396;-69
2022/05/27 11:19:01;;;;;;;38.05;4.97;;;12.80;99.90;;;;;;5035800;28;20495;-69
2022/05/27 11:21:29;;;;;;;25.92;4.22;;;13.20;99.90;;;;;;5054073;28;20061;-69
2022/05/27 11:24:29;;;;;;;17.92;5.45;;;13.20;99.90;;;;;;5053454;28;20032;-68
2022/05/27 11:27:15;;;;;;;31.80;5.25;;;13.10;99.90;;;;;;5035654;28;20048;-68
2022/05/27 11:30:18;;;;;;;36.70;5.85;;;13.00;99.90;;;;;;5053830;28;20025;-68
2022/05/27 11:33:01;;;;;;;29.48;4.45;;;13.00;99.90;;;;;;5053488;28;20568;-68
2022/05/27 11:35:48;;;;;;;35.30;6.00;;;13.10;99.90;;;;;;5053531;28;20028;-68
2022/05/27 11:38:32;;;;;;;31.25;5.20;;;13.60;99.90;;;;;;5053456;28;20071;-69
2022/05/27 11:41:16;;;;;;;37.55;6.97;;;13.50;99.90;;;;;;5053279;28;20496;-68
2022/05/27 11:43:48;;;;;;;;;;;13.20;99.90;;;;;;5053811;28;20473;-68
2022/05/27 11:46:22;;;;;;;23.02;4.60;;;12.90;99.90;;;;;;5035947;28;20007;-68
2022/05/27 11:49:25;;;;;;;12.25;2.25;;;12.50;99.90;;;;;;5053651;28;20350;-68
2022/05/27 11:52:08;;;;;;;22.55;4.45;;;11.70;99.90;;;;;;5053403;28;20036;-69
2022/05/27 11:54:58;;;;;;;31.40;6.72;;;10.60;99.90;;;;;;5053841;28;20025;-69
2022/05/27 11:57:35;;;;;;;20.77;3.70;;;10.00;99.90;;;;;;5054313;28;20028;-69
2022/05/27 12:00:05;;;;;;;33.30;4.45;;;9.90;99.90;;;;;;5057522;28;20040;-69
2022/05/27 12:02:59;;;;;;;36.03;5.20;;;9.80;99.90;;;;;;5057015;28;20032;-69
2022/05/27 12:05:29;;;;;;;34.30;5.88;;;9.80;99.90;;;;;;5037761;28;20032;-72
2022/05/27 12:08:07;;;;;;;31.58;7.57;;;10.10;99.90;;;;;;5057670;28;20479;-72
2022/05/27 12:10:50;;;;;;;25.70;3.83;;;10.90;99.90;;;;;;5057401;28;20075;-72
2022/05/27 12:13:40;;;;;;;29.48;4.32;;;11.80;99.90;;;;;;5057733;28;20055;-73
2022/05/27 12:16:12;;;;;;;15.98;3.05;;;12.80;99.90;;;;;;5057612;28;20494;-73
2022/05/27 12:18:45;;;;;;;20.63;3.28;;;13.80;99.90;;;;;;5039371;28;20060;-73
2022/05/27 12:21:23;;;;;;;13.23;3.03;;;14.30;99.90;;;;;;5057303;28;20025;-73
2022/05/27 12:24:00;;;;;;;29.08;3.88;;;14.50;99.90;;;;;;5057137;28;20025;-73
2022/05/27 12:26:30;;;;;;;24.92;4.45;;;14.00;99.90;;;;;;5057427;28;20034;-72
2022/05/27 12:28:58;;;;;;;24.13;3.60;;;13.70;99.90;;;;;;5057093;28;20123;-71
2022/05/27 12:31:24;;;;;;;21.92;3.63;;;13.50;99.90;;;;;;5057173;28;20424;-71
2022/05/27 12:33:49;;;;;;;21.80;4.35;;;13.00;99.90;;;;;;5056614;28;20048;-72
2022/05/27 12:36:24;;;;;;;17.83;4.65;;;12.90;99.90;;;;;;5056778;28;20393;-72
2022/05/27 12:38:52;;;;;;;24.95;3.83;;;12.70;99.90;;;;;;5039212;28;20036;-71
2022/05/27 12:41:43;;;;;;;29.75;3.47;;;12.30;99.90;;;;;;5056655;28;20025;-71
2022/05/27 12:44:28;;;;;;;31.83;4.80;;;11.90;99.90;;;;;;5056683;28;20028;-72
2022/05/27 12:46:58;;;;;;;28.63;3.88;;;11.10;99.90;;;;;;5057268;28;20017;-72
2022/05/27 12:49:38;;;;;;;30.63;4.47;;;10.70;99.90;;;;;;5038828;28;20045;-72
2022/05/27 12:52:08;;;;;;;22.60;3.60;;;11.50;99.90;;;;;;5056763;28;20485;-72
2022/05/27 12:54:42;;;;;;;21.80;3.50;;;12.20;99.90;;;;;;5057085;28;20108;-72
2022/05/27 13:03:07;;;;;;;16.95;2.88;;;13.20;99.90;;;;;;5056489;28;20059;-72
2022/05/27 13:06:12;;;;;;;15.00;2.80;;;13.30;99.90;;;;;;5056174;28;20405;-72
2022/05/27 13:08:50;;;;;;;12.88;3.03;;;13.50;99.90;;;;;;5056320;28;20025;-72
2022/05/27 13:11:37;;;;;;;17.30;2.83;;;12.70;99.90;;;;;;5055869;28;20412;-72
2022/05/27 13:14:03;;;;;;;23.63;3.15;;;12.00;99.90;;;;;;5049126;28;20140;-72
2022/05/27 13:16:46;;;;;;;18.45;3.25;;;11.70;99.90;;;;;;5056085;28;20057;-72
2022/05/27 13:19:44;;;;;;;28.67;3.63;;;11.70;99.90;;;;;;5055975;28;20020;-72
2022/05/27 13:22:54;;;;;;;18.13;3.40;;;12.10;99.90;;;;;;5055873;28;20043;-71
2022/05/27 13:25:19;;;;;;;15.25;2.22;;;12.70;99.90;;;;;;5055807;28;20028;-71
2022/05/27 13:27:46;;;;;;;18.35;3.83;;;13.40;99.90;;;;;;5055766;28;20017;-71
2022/05/27 13:30:14;;;;;;;13.25;2.30;;;13.50;99.90;;;;;;5055599;28;20469;-71
2022/05/27 13:33:05;;;;;;;18.70;2.35;;;13.20;99.90;;;;;;5055797;28;20120;-71
2022/05/27 13:35:44;;;;;;;20.20;3.72;;;12.60;99.90;;;;;;5055562;28;20469;-71
2022/05/27 13:38:13;;;;;;;23.27;4.10;;;12.50;99.90;;;;;;5055671;28;20025;-71
2022/05/27 13:40:40;;;;;;;22.15;4.07;;;12.80;99.90;;;;;;5055782;28;20036;-70
2022/05/27 13:43:11;;;;;;;21.15;4.00;;;12.60;99.90;;;;;;5056264;28;20096;-72